Time;durP1;ratioP1;P1;durP2;ratioP2;P2;SDS_P1;SDS_P2;PMS_P1;PMS_P2;Temp;Humidity;BMP_temperature;BMP_pressure;BME280_temperature;BME280_humidity;BME280_pressure;Samples;Min_cycle;Max_cycle;Signal;HPM_P1;HPM_P2
2022/08/31 00:05:59;;;;;;;2.47;2.28;;;22.70;64.70;;;;;;5051040;28;20032;-61
2022/08/31 00:08:26;;;;;;;4.00;2.63;;;22.70;64.70;;;;;;5043094;28;20056;-60
2022/08/31 00:10:54;;;;;;;2.80;2.50;;;22.60;64.60;;;;;;5048493;28;20035;-59
2022/08/31 00:13:20;;;;;;;2.47;2.28;;;22.60;64.90;;;;;;5048267;28;20040;-59
2022/08/31 00:15:47;;;;;;;3.25;2.70;;;22.60;64.90;;;;;;5045260;28;20052;-60
2022/08/31 00:18:13;;;;;;;3.28;2.83;;;22.60;65.00;;;;;;5050633;28;20025;-58
2022/08/31 00:20:39;;;;;;;3.35;2.50;;;22.60;65.10;;;;;;5044121;28;20487;-58
2022/08/31 00:23:09;;;;;;;3.67;2.20;;;22.60;65.30;;;;;;5050163;28;20064;-60
2022/08/31 00:25:36;;;;;;;4.03;2.58;;;22.60;65.30;;;;;;5050183;28;20108;-58
2022/08/31 00:28:03;;;;;;;2.92;2.63;;;22.60;65.40;;;;;;5051034;28;20029;-60
2022/08/31 00:30:30;;;;;;;2.97;2.45;;;22.50;65.30;;;;;;5044684;28;20079;-58
2022/08/31 00:32:56;;;;;;;3.45;2.40;;;22.50;65.40;;;;;;5038751;28;20116;-58
2022/08/31 00:35:22;;;;;;;3.05;2.75;;;22.50;65.40;;;;;;5047899;28;20041;-60
2022/08/31 00:37:48;;;;;;;3.45;2.40;;;22.50;65.50;;;;;;5043917;28;20025;-57
2022/08/31 00:40:14;;;;;;;3.92;2.97;;;22.50;65.50;;;;;;5050897;28;20036;-59
2022/08/31 00:42:40;;;;;;;4.00;2.35;;;22.50;65.50;;;;;;5054918;28;20040;-59
2022/08/31 00:45:06;;;;;;;2.90;2.65;;;22.40;65.50;;;;;;5054912;28;20500;-59
2022/08/31 00:47:32;;;;;;;3.00;2.58;;;22.40;65.70;;;;;;5051498;28;20020;-58
2022/08/31 00:49:59;;;;;;;3.45;2.65;;;22.40;65.80;;;;;;5053709;28;20468;-59
2022/08/31 00:52:32;;;;;;;2.95;2.50;;;22.40;65.80;;;;;;5051999;28;20402;-59
2022/08/31 00:55:23;;;;;;;3.47;2.67;;;22.40;66.00;;;;;;5053126;28;20086;-58
2022/08/31 00:57:54;;;;;;;3.10;2.80;;;22.40;66.10;;;;;;5046930;28;20040;-61
2022/08/31 01:00:23;;;;;;;2.70;2.50;;;22.30;66.10;;;;;;5054800;28;20041;-59
2022/08/31 01:02:50;;;;;;;2.67;2.45;;;22.40;66.30;;;;;;5052343;28;20024;-58
2022/08/31 01:05:17;;;;;;;3.40;2.75;;;22.40;66.40;;;;;;5057525;28;20043;-58
2022/08/31 01:07:46;;;;;;;4.30;2.80;;;22.30;66.30;;;;;;5054634;28;20102;-60
2022/08/31 01:10:13;;;;;;;5.45;3.28;;;22.30;66.40;;;;;;5053712;28;20036;-58
2022/08/31 01:12:40;;;;;;;3.03;2.67;;;22.30;66.50;;;;;;5054759;28;20554;-58
2022/08/31 01:15:08;;;;;;;4.28;3.20;;;22.30;66.50;;;;;;5054757;28;20082;-58
2022/08/31 01:17:36;;;;;;;3.70;2.97;;;22.30;66.50;;;;;;5052241;28;20111;-59
2022/08/31 01:20:16;;;;;;;3.65;3.03;;;22.20;66.50;;;;;;5052293;28;20090;-60
2022/08/31 01:22:50;;;;;;;3.53;2.97;;;22.20;66.50;;;;;;5047905;28;20393;-60
2022/08/31 01:25:17;;;;;;;3.00;2.70;;;22.20;66.50;;;;;;5049648;28;20036;-59
2022/08/31 01:27:44;;;;;;;3.35;2.88;;;22.20;66.70;;;;;;5054272;28;20029;-58
2022/08/31 01:30:12;;;;;;;3.25;2.92;;;22.10;66.60;;;;;;5054154;28;20373;-58
2022/08/31 01:32:39;;;;;;;4.38;3.20;;;22.10;66.70;;;;;;5050946;28;20029;-58
2022/08/31 01:35:06;;;;;;;3.55;2.88;;;22.10;66.70;;;;;;5052829;28;20087;-58
2022/08/31 01:37:32;;;;;;;3.10;2.78;;;22.10;66.70;;;;;;5053256;28;20422;-59
2022/08/31 01:39:58;;;;;;;3.70;2.72;;;22.10;66.60;;;;;;5053333;28;20031;-57
2022/08/31 01:42:23;;;;;;;3.42;2.80;;;22.00;66.60;;;;;;5054749;28;20116;-58
2022/08/31 01:44:49;;;;;;;3.90;2.83;;;22.00;66.60;;;;;;5058751;28;20035;-58
2022/08/31 01:47:15;;;;;;;3.72;2.63;;;22.00;66.70;;;;;;5053657;28;20040;-58
2022/08/31 01:49:41;;;;;;;4.45;2.80;;;22.00;66.70;;;;;;5053990;28;20033;-59
2022/08/31 01:52:06;;;;;;;3.13;2.70;;;22.00;66.60;;;;;;5053338;28;20090;-58
2022/08/31 01:54:32;;;;;;;3.50;2.78;;;22.00;66.70;;;;;;5042053;28;20137;-57
2022/08/31 01:57:00;;;;;;;3.92;2.90;;;22.00;66.70;;;;;;5051869;28;20082;-58
2022/08/31 01:59:26;;;;;;;4.43;3.10;;;22.00;66.60;;;;;;5053103;28;20056;-58
2022/08/31 02:01:53;;;;;;;3.20;2.90;;;21.90;66.70;;;;;;5049074;28;20044;-58
2022/08/31 02:04:21;;;;;;;3.75;3.00;;;21.90;66.80;;;;;;5052568;28;20021;-58
2022/08/31 02:06:50;;;;;;;5.47;3.15;;;21.90;66.90;;;;;;5053284;28;20086;-58
2022/08/31 02:09:16;;;;;;;3.83;3.00;;;21.90;66.90;;;;;;5049239;28;20511;-57
2022/08/31 02:11:42;;;;;;;3.58;2.92;;;21.90;67.10;;;;;;5051100;28;20025;-57
2022/08/31 02:14:09;;;;;;;3.88;3.03;;;21.90;67.10;;;;;;5051944;28;20127;-58
2022/08/31 02:16:35;;;;;;;3.65;2.90;;;21.90;67.30;;;;;;5046284;28;20038;-57
2022/08/31 02:19:02;;;;;;;4.50;3.00;;;21.90;67.30;;;;;;5054064;28;20021;-58
2022/08/31 02:21:28;;;;;;;3.88;2.83;;;21.90;67.20;;;;;;5051443;28;20026;-57
2022/08/31 02:23:54;;;;;;;4.35;2.92;;;21.90;67.50;;;;;;5050808;28;20029;-56
2022/08/31 02:26:20;;;;;;;3.75;3.10;;;21.90;67.30;;;;;;5050638;28;20055;-56
2022/08/31 02:28:46;;;;;;;4.90;3.22;;;21.80;67.30;;;;;;5052221;28;20030;-57
2022/08/31 02:31:12;;;;;;;3.92;2.90;;;21.80;67.30;;;;;;5050958;28;20025;-57
2022/08/31 02:33:38;;;;;;;4.20;2.85;;;21.80;67.30;;;;;;5053345;28;20096;-56
2022/08/31 02:36:05;;;;;;;3.97;3.00;;;21.80;67.20;;;;;;5049971;28;20472;-56
2022/08/31 02:38:33;;;;;;;3.40;2.90;;;21.80;67.30;;;;;;5051219;28;20366;-57
2022/08/31 02:40:59;;;;;;;4.53;3.20;;;21.80;67.20;;;;;;5047666;28;20025;-56
2022/08/31 02:43:25;;;;;;;4.50;2.80;;;21.80;67.80;;;;;;5050876;28;20028;-57
2022/08/31 02:45:51;;;;;;;3.05;2.75;;;21.80;67.90;;;;;;5052794;28;20029;-58
2022/08/31 02:48:17;;;;;;;4.18;3.25;;;21.80;67.30;;;;;;5053318;28;20527;-57
2022/08/31 02:50:45;;;;;;;4.10;3.55;;;21.70;67.30;;;;;;5051597;28;20032;-57
2022/08/31 02:53:13;;;;;;;3.33;2.75;;;21.70;67.40;;;;;;5051753;28;20043;-58
2022/08/31 02:55:39;;;;;;;4.30;3.25;;;21.70;67.40;;;;;;5051876;28;20036;-56
2022/08/31 02:58:05;;;;;;;4.07;3.00;;;21.70;67.40;;;;;;5052054;28;20029;-57
2022/08/31 03:00:32;;;;;;;4.18;3.20;;;21.70;67.40;;;;;;5046048;28;20377;-57
2022/08/31 03:02:58;;;;;;;4.25;3.15;;;21.70;67.40;;;;;;5052978;28;20028;-57
2022/08/31 03:05:25;;;;;;;3.33;2.90;;;21.70;67.50;;;;;;5050208;28;20396;-57
2022/08/31 03:07:51;;;;;;;3.75;3.13;;;21.70;67.50;;;;;;5053126;28;20036;-56
2022/08/31 03:10:19;;;;;;;3.83;3.20;;;21.70;67.70;;;;;;5049939;28;20393;-57
2022/08/31 03:12:45;;;;;;;3.72;3.00;;;21.70;67.70;;;;;;5052074;28;20048;-56
2022/08/31 03:15:11;;;;;;;3.83;2.97;;;21.70;67.70;;;;;;5048333;28;20021;-58
2022/08/31 03:17:37;;;;;;;3.70;3.00;;;21.70;67.80;;;;;;5051423;28;20025;-57
2022/08/31 03:20:05;;;;;;;3.88;3.13;;;21.70;67.90;;;;;;5051619;28;20025;-57
2022/08/31 03:22:31;;;;;;;3.40;3.10;;;21.70;68.00;;;;;;5051802;28;20032;-56
2022/08/31 03:24:57;;;;;;;4.25;3.35;;;21.70;68.00;;;;;;5050451;28;20442;-57
2022/08/31 03:27:23;;;;;;;3.75;2.90;;;21.70;67.90;;;;;;5050616;28;20025;-58
2022/08/31 03:29:50;;;;;;;4.22;3.03;;;21.70;68.00;;;;;;5046775;28;20104;-58
2022/08/31 03:32:16;;;;;;;3.72;3.17;;;21.80;67.90;;;;;;5038067;28;20053;-57
2022/08/31 03:34:42;;;;;;;3.50;3.05;;;21.80;67.90;;;;;;5049711;28;20048;-58
2022/08/31 03:37:08;;;;;;;4.60;3.63;;;21.80;67.90;;;;;;5034929;28;20059;-56
2022/08/31 03:39:33;;;;;;;4.07;3.47;;;21.80;68.10;;;;;;5049618;28;20071;-58
2022/08/31 03:41:59;;;;;;;4.72;3.78;;;21.90;68.20;;;;;;5048525;28;20021;-57
2022/08/31 03:44:25;;;;;;;4.57;3.65;;;21.90;68.30;;;;;;5053079;28;20046;-59
2022/08/31 03:46:54;;;;;;;4.20;3.30;;;21.90;68.30;;;;;;5034300;28;20021;-57
2022/08/31 03:49:20;;;;;;;4.25;3.55;;;22.00;68.30;;;;;;5049929;28;20479;-57
2022/08/31 03:51:47;;;;;;;4.75;3.60;;;22.00;68.30;;;;;;5042275;28;20079;-57
2022/08/31 03:54:13;;;;;;;5.13;3.90;;;22.00;68.20;;;;;;5049397;28;20033;-57
2022/08/31 03:56:39;;;;;;;4.88;3.75;;;22.00;68.20;;;;;;5048008;28;20064;-57
2022/08/31 03:59:06;;;;;;;5.72;4.10;;;22.00;68.30;;;;;;5048674;28;20040;-56
2022/08/31 04:01:34;;;;;;;6.20;3.90;;;22.10;68.40;;;;;;5050679;28;20053;-57
2022/08/31 04:04:00;;;;;;;4.93;3.30;;;22.10;68.40;;;;;;5051538;28;20385;-59
2022/08/31 04:06:26;;;;;;;4.78;4.05;;;22.10;68.50;;;;;;5042916;28;20034;-58
2022/08/31 04:08:52;;;;;;;4.55;3.53;;;22.10;68.30;;;;;;5034073;28;20481;-58
2022/08/31 04:11:18;;;;;;;4.50;3.83;;;22.10;68.30;;;;;;5050049;28;20412;-56
2022/08/31 04:13:45;;;;;;;5.30;4.07;;;22.10;68.30;;;;;;5050428;28;20120;-57
2022/08/31 04:16:13;;;;;;;4.03;3.03;;;22.10;68.20;;;;;;5051079;28;20104;-58
2022/08/31 04:18:40;;;;;;;4.72;3.90;;;22.10;68.20;;;;;;5053672;28;20078;-57
2022/08/31 04:21:18;;;;;;;4.15;3.60;;;22.20;68.20;;;;;;5030191;28;20025;-58
2022/08/31 04:23:45;;;;;;;4.30;3.15;;;22.20;68.30;;;;;;5051731;28;20432;-57
2022/08/31 04:26:21;;;;;;;4.40;3.50;;;22.20;68.30;;;;;;5050567;28;20029;-56
2022/08/31 04:28:47;;;;;;;4.15;3.17;;;22.20;68.30;;;;;;5046685;28;20127;-56
2022/08/31 04:31:14;;;;;;;3.90;3.15;;;22.20;68.30;;;;;;5044719;28;20040;-57
2022/08/31 04:33:40;;;;;;;4.28;3.53;;;22.20;68.30;;;;;;5048418;28;20040;-57
2022/08/31 04:36:08;;;;;;;3.28;2.97;;;22.20;68.30;;;;;;5049153;28;20060;-57
2022/08/31 04:38:34;;;;;;;4.55;3.50;;;22.20;68.30;;;;;;5051504;28;20099;-57
2022/08/31 04:41:09;;;;;;;4.43;3.40;;;22.30;68.40;;;;;;5047935;28;20025;-58
2022/08/31 04:43:35;;;;;;;4.00;3.47;;;22.30;68.30;;;;;;5054017;28;20032;-57
2022/08/31 04:46:03;;;;;;;4.63;3.45;;;22.30;68.30;;;;;;5047960;28;20021;-57
2022/08/31 04:48:28;;;;;;;4.88;3.70;;;22.30;68.20;;;;;;5049399;28;20025;-60
2022/08/31 04:51:16;;;;;;;5.22;3.55;;;22.30;68.40;;;;;;5050556;28;20037;-58
2022/08/31 04:53:42;;;;;;;5.18;3.58;;;22.30;68.00;;;;;;5049928;28;20035;-59
2022/08/31 04:56:18;;;;;;;3.40;3.00;;;22.30;68.20;;;;;;5050594;28;20040;-56
2022/08/31 04:58:48;;;;;;;4.65;3.70;;;22.30;68.20;;;;;;5042453;28;20017;-56
2022/08/31 05:01:16;;;;;;;5.20;3.72;;;22.40;68.30;;;;;;5046290;28;20035;-57
2022/08/31 05:03:49;;;;;;;4.45;3.58;;;22.50;68.20;;;;;;5049754;28;20456;-57
2022/08/31 05:06:16;;;;;;;4.43;3.20;;;22.60;68.10;;;;;;5047579;28;20104;-57
2022/08/31 05:08:42;;;;;;;4.45;3.70;;;22.60;67.90;;;;;;5045945;28;20037;-56
2022/08/31 05:11:09;;;;;;;4.13;3.40;;;22.70;68.00;;;;;;5050632;28;20071;-57
2022/08/31 05:13:36;;;;;;;5.13;3.35;;;22.70;67.90;;;;;;5051178;28;20035;-58
2022/08/31 05:16:04;;;;;;;4.28;3.40;;;22.70;68.00;;;;;;5050669;28;20083;-57
2022/08/31 05:18:30;;;;;;;4.13;3.17;;;22.80;68.20;;;;;;5047691;28;20029;-58
2022/08/31 05:20:56;;;;;;;4.28;3.63;;;22.80;68.40;;;;;;5049165;28;20112;-58
2022/08/31 05:23:21;;;;;;;4.22;3.40;;;22.80;68.50;;;;;;5049574;28;20397;-60
2022/08/31 05:25:47;;;;;;;3.75;3.40;;;22.80;68.60;;;;;;5045427;28;20064;-58
2022/08/31 05:28:13;;;;;;;4.55;3.50;;;22.80;68.70;;;;;;5051667;28;20651;-58
2022/08/31 05:30:43;;;;;;;5.00;3.95;;;22.80;68.70;;;;;;5050356;28;20025;-57
2022/08/31 05:33:09;;;;;;;5.68;3.25;;;22.80;68.70;;;;;;5053185;28;20554;-57
2022/08/31 05:35:35;;;;;;;4.57;3.72;;;22.90;68.80;;;;;;5049039;28;20037;-56
2022/08/31 05:38:00;;;;;;;5.40;3.67;;;22.90;68.90;;;;;;5049090;28;20067;-59
2022/08/31 05:40:26;;;;;;;5.10;3.55;;;22.90;68.90;;;;;;5051572;28;20071;-59
2022/08/31 05:42:52;;;;;;;4.25;3.55;;;22.90;69.00;;;;;;5051968;28;20032;-59
2022/08/31 05:45:18;;;;;;;4.57;3.92;;;22.90;69.00;;;;;;5047451;28;20383;-58
2022/08/31 05:47:43;;;;;;;5.13;3.67;;;23.00;69.20;;;;;;5051756;28;20036;-57
2022/08/31 05:50:09;;;;;;;5.47;3.75;;;23.00;69.20;;;;;;5052624;28;20028;-58
2022/08/31 05:52:35;;;;;;;4.60;3.50;;;23.10;69.30;;;;;;5050150;28;20399;-59
2022/08/31 05:55:01;;;;;;;4.78;3.65;;;23.10;69.20;;;;;;5046473;28;20027;-58
2022/08/31 05:57:26;;;;;;;5.10;4.13;;;23.20;69.10;;;;;;5048989;28;20018;-59
2022/08/31 05:59:52;;;;;;;4.93;3.70;;;23.30;69.20;;;;;;5040910;28;20013;-58
2022/08/31 06:02:17;;;;;;;4.57;3.65;;;23.30;68.90;;;;;;5037215;28;20032;-60
2022/08/31 06:04:43;;;;;;;5.13;4.10;;;23.30;68.80;;;;;;5040625;28;20040;-58
2022/08/31 06:07:10;;;;;;;4.88;3.58;;;23.30;68.80;;;;;;5039838;28;20404;-59
2022/08/31 06:09:37;;;;;;;5.20;3.50;;;23.30;68.80;;;;;;5034401;28;20037;-57
2022/08/31 06:12:04;;;;;;;5.22;3.83;;;23.30;68.80;;;;;;5034480;28;20062;-58
2022/08/31 06:14:31;;;;;;;5.75;3.92;;;23.30;69.00;;;;;;5038058;28;20055;-57
2022/08/31 06:16:58;;;;;;;5.57;4.45;;;23.30;69.00;;;;;;5032305;28;20063;-57
2022/08/31 06:19:26;;;;;;;4.72;3.80;;;23.30;69.70;;;;;;5025282;28;20029;-59
2022/08/31 06:21:51;;;;;;;5.55;4.32;;;23.20;69.00;;;;;;5040544;28;20036;-58
2022/08/31 06:24:18;;;;;;;5.45;4.20;;;23.20;69.10;;;;;;5038257;28;20460;-59
2022/08/31 06:26:50;;;;;;;4.55;3.92;;;23.20;69.20;;;;;;5034653;28;20420;-59
2022/08/31 06:29:16;;;;;;;4.80;3.85;;;23.10;69.20;;;;;;5034034;28;20017;-60
2022/08/31 06:31:45;;;;;;;5.80;4.20;;;23.10;70.00;;;;;;5036654;28;20132;-58
2022/08/31 06:34:12;;;;;;;5.35;4.38;;;23.00;69.40;;;;;;5033943;28;20068;-59
2022/08/31 06:36:38;;;;;;;6.25;4.68;;;23.00;69.50;;;;;;5036059;28;20049;-59
2022/08/31 06:39:04;;;;;;;5.30;3.70;;;23.00;69.70;;;;;;5032969;28;20039;-58
2022/08/31 06:41:38;;;;;;;5.95;4.55;;;23.00;69.70;;;;;;5037067;28;20029;-57
2022/08/31 06:44:06;;;;;;;7.50;4.35;;;23.00;69.80;;;;;;5039275;28;20043;-60
2022/08/31 06:46:33;;;;;;;4.32;3.78;;;23.00;70.00;;;;;;5034470;28;20507;-59
2022/08/31 06:48:59;;;;;;;6.22;4.45;;;23.00;69.90;;;;;;5032461;28;20512;-59
2022/08/31 06:51:26;;;;;;;8.07;5.03;;;23.00;70.00;;;;;;5020138;28;20048;-58
2022/08/31 06:53:52;;;;;;;6.47;5.32;;;23.00;70.00;;;;;;5033778;28;20029;-59
2022/08/31 06:56:26;;;;;;;6.20;4.53;;;22.90;70.10;;;;;;5031632;28;20437;-60
2022/08/31 06:58:53;;;;;;;6.63;5.03;;;22.90;70.10;;;;;;5032261;28;20040;-59
2022/08/31 07:01:27;;;;;;;5.78;3.80;;;22.90;70.20;;;;;;5032468;28;20555;-60
2022/08/31 07:03:54;;;;;;;6.68;5.07;;;22.90;70.30;;;;;;5028085;28;20032;-59
2022/08/31 07:06:27;;;;;;;5.57;4.35;;;22.90;70.30;;;;;;5027162;28;20033;-58
2022/08/31 07:08:56;;;;;;;5.78;4.55;;;22.90;70.30;;;;;;5030328;28;20043;-59
2022/08/31 07:11:24;;;;;;;6.68;5.28;;;22.90;70.30;;;;;;5022630;28;20025;-59
2022/08/31 07:13:52;;;;;;;5.45;4.50;;;23.00;70.30;;;;;;5019340;28;20128;-59
2022/08/31 07:16:21;;;;;;;5.85;4.68;;;23.00;70.30;;;;;;5020251;28;20026;-59
2022/08/31 07:18:48;;;;;;;6.38;4.97;;;23.00;70.20;;;;;;5024897;28;20024;-58
2022/08/31 07:21:28;;;;;;;6.03;4.57;;;23.00;70.20;;;;;;5011007;28;20975;-58
2022/08/31 07:23:55;;;;;;;5.63;4.65;;;23.10;70.20;;;;;;5017224;28;20036;-58
2022/08/31 07:26:24;;;;;;;5.90;4.35;;;23.10;70.20;;;;;;5016997;28;20044;-61
2022/08/31 07:28:52;;;;;;;6.05;4.60;;;23.10;70.10;;;;;;5019096;28;20579;-60
2022/08/31 07:31:21;;;;;;;6.50;4.32;;;23.10;69.90;;;;;;5023632;28;20039;-58
2022/08/31 07:33:54;;;;;;;5.43;4.22;;;23.10;69.90;;;;;;5027333;28;20033;-59
2022/08/31 07:36:22;;;;;;;5.30;3.63;;;23.10;69.90;;;;;;5026193;28;20045;-60
2022/08/31 07:44:18;;;;;;;5.13;3.40;;;23.10;69.70;;;;;;5025224;28;20111;-58
2022/08/31 07:46:45;;;;;;;4.22;3.70;;;23.10;69.70;;;;;;5015678;28;20040;-59
2022/08/31 07:49:14;;;;;;;5.15;3.92;;;23.20;69.70;;;;;;5025676;28;20451;-57
2022/08/31 07:51:49;;;;;;;4.85;4.00;;;23.20;69.70;;;;;;5016717;28;20029;-60
2022/08/31 07:54:26;;;;;;;4.45;3.72;;;23.20;69.70;;;;;;5007300;28;20661;-59
2022/08/31 07:56:55;;;;;;;5.20;3.72;;;23.20;69.80;;;;;;5017907;28;20029;-59
2022/08/31 07:59:22;;;;;;;4.82;3.78;;;23.20;69.90;;;;;;5013546;28;20175;-59
2022/08/31 08:01:48;;;;;;;6.78;4.63;;;23.20;69.90;;;;;;5015007;28;20029;-59
2022/08/31 08:04:25;;;;;;;5.95;4.10;;;23.20;70.00;;;;;;5017375;28;20044;-58
2022/08/31 08:07:04;;;;;;;6.32;3.83;;;23.20;70.00;;;;;;5016249;28;21094;-59
2022/08/31 08:09:31;;;;;;;4.18;3.60;;;23.30;69.90;;;;;;5022748;28;20587;-59
2022/08/31 08:12:05;;;;;;;5.05;3.92;;;23.30;69.90;;;;;;5026851;28;20067;-60
2022/08/31 08:14:33;;;;;;;5.63;4.47;;;23.40;70.10;;;;;;5025966;28;20032;-58
2022/08/31 08:16:59;;;;;;;6.85;4.68;;;23.40;70.00;;;;;;5026879;28;20429;-58
2022/08/31 08:19:25;;;;;;;6.15;4.32;;;23.50;70.10;;;;;;5019281;28;20033;-60
2022/08/31 08:21:50;;;;;;;5.40;4.20;;;23.50;70.10;;;;;;5020323;28;20449;-59
2022/08/31 08:24:16;;;;;;;6.28;4.68;;;23.60;70.10;;;;;;5021284;28;20161;-60
2022/08/31 08:26:45;;;;;;;7.03;4.78;;;23.70;70.20;;;;;;5023068;28;20040;-60
2022/08/31 08:29:11;;;;;;;6.10;4.90;;;23.80;70.20;;;;;;5017998;28;20061;-58
2022/08/31 08:31:37;;;;;;;6.13;4.95;;;23.90;70.20;;;;;;5017165;28;20036;-58
2022/08/31 08:34:03;;;;;;;5.78;4.68;;;23.90;70.10;;;;;;5020971;28;20044;-59
2022/08/31 08:36:33;;;;;;;5.90;4.40;;;24.00;69.90;;;;;;5007789;28;20574;-60
2022/08/31 08:38:59;;;;;;;6.80;5.35;;;24.00;69.80;;;;;;5015457;28;20074;-59
2022/08/31 08:41:27;;;;;;;6.68;5.03;;;24.00;69.90;;;;;;5019690;28;20026;-60
2022/08/31 08:43:55;;;;;;;7.35;5.43;;;24.00;69.90;;;;;;5014782;28;20021;-60
2022/08/31 08:46:28;;;;;;;8.35;5.72;;;24.10;70.10;;;;;;5010910;28;20163;-59
2022/08/31 08:48:59;;;;;;;7.30;5.13;;;24.20;70.10;;;;;;5015794;28;20392;-61
2022/08/31 08:51:32;;;;;;;6.60;5.32;;;24.20;69.90;;;;;;5022873;28;20426;-61
2022/08/31 08:54:05;;;;;;;8.13;5.10;;;24.30;70.00;;;;;;5014729;28;20029;-60
2022/08/31 08:56:30;;;;;;;6.50;5.10;;;24.40;70.00;;;;;;5012362;28;21035;-58
2022/08/31 08:58:56;;;;;;;6.50;4.80;;;24.40;69.80;;;;;;5013646;28;20025;-59
2022/08/31 09:01:28;;;;;;;6.57;5.07;;;24.50;69.70;;;;;;5016552;28;20721;-59
2022/08/31 09:04:32;;;;;;;7.47;5.45;;;24.60;69.60;;;;;;5021611;28;20044;-57
2022/08/31 09:07:04;;;;;;;7.93;6.43;;;24.60;69.60;;;;;;4997384;28;20072;-59
2022/08/31 09:09:43;;;;;;;7.00;5.30;;;24.70;69.40;;;;;;5020512;28;20049;-60
2022/08/31 09:12:44;;;;;;;7.30;5.80;;;24.70;69.40;;;;;;5024089;28;20111;-59
2022/08/31 09:15:38;;;;;;;6.85;4.93;;;24.80;69.30;;;;;;5018917;28;20032;-59
2022/08/31 09:18:39;;;;;;;6.35;5.35;;;24.80;69.30;;;;;;5007563;28;20049;-59
2022/08/31 09:21:19;;;;;;;5.90;4.38;;;24.80;69.00;;;;;;4970937;28;20044;-59
2022/08/31 09:23:50;;;;;;;6.18;4.53;;;24.80;69.00;;;;;;5014339;28;20075;-59
2022/08/31 09:26:19;;;;;;;5.07;4.25;;;24.80;68.80;;;;;;5007782;28;20041;-59
2022/08/31 09:28:47;;;;;;;4.82;4.05;;;24.80;68.80;;;;;;5029038;28;20563;-59
2022/08/31 09:31:35;;;;;;;6.85;4.32;;;24.90;68.80;;;;;;5020451;28;20079;-60
2022/08/31 09:34:03;;;;;;;4.72;3.53;;;24.90;68.50;;;;;;5019282;28;20094;-58
2022/08/31 09:36:39;;;;;;;4.47;3.13;;;24.80;68.40;;;;;;5027282;28;20165;-59
2022/08/31 09:39:21;;;;;;;5.50;3.50;;;24.80;68.20;;;;;;5003433;28;20033;-58
2022/08/31 09:41:48;;;;;;;4.75;3.50;;;24.80;68.00;;;;;;5027326;28;20028;-60
2022/08/31 09:44:34;;;;;;;4.78;3.42;;;24.80;68.10;;;;;;5021401;28;20171;-59
2022/08/31 09:47:03;;;;;;;3.78;3.35;;;24.80;68.00;;;;;;5024377;28;20684;-61
2022/08/31 09:49:35;;;;;;;4.15;3.30;;;24.80;67.90;;;;;;5021014;28;20026;-60
2022/08/31 09:55:12;;;;;;;5.15;3.75;;;24.80;67.80;;;;;;5016983;28;20025;-60
2022/08/31 09:55:18;;;;;;;4.38;3.33;;;24.80;67.70;;;;;;5022676;28;20043;-61
2022/08/31 09:57:52;;;;;;;4.80;3.40;;;24.80;67.70;;;;;;5018456;28;20028;-61
2022/08/31 10:00:40;;;;;;;3.78;3.13;;;24.70;67.80;;;;;;5020738;28;20075;-59
2022/08/31 10:03:20;;;;;;;4.03;3.20;;;24.70;67.90;;;;;;5020026;28;20033;-62
2022/08/31 10:05:49;;;;;;;5.05;3.85;;;24.80;67.90;;;;;;5021003;28;20021;-62
2022/08/31 10:08:27;;;;;;;4.88;3.90;;;24.80;67.80;;;;;;5017029;28;20037;-59
2022/08/31 10:10:57;;;;;;;4.07;3.45;;;24.80;67.60;;;;;;5021937;28;20436;-61
2022/08/31 10:13:37;;;;;;;4.15;3.50;;;24.90;67.70;;;;;;5022328;28;20889;-60
2022/08/31 10:16:13;;;;;;;5.03;3.57;;;24.90;67.50;;;;;;5034592;28;20481;-59
2022/08/31 10:19:03;;;;;;;5.75;4.18;;;24.90;67.40;;;;;;5030414;28;20703;-60
2022/08/31 10:21:38;;;;;;;4.70;3.95;;;24.90;67.40;;;;;;5036438;28;20037;-58
2022/08/31 10:24:04;;;;;;;5.18;3.80;;;25.00;67.40;;;;;;5033348;28;20443;-59
2022/08/31 10:26:52;;;;;;;6.13;4.13;;;25.00;67.40;;;;;;5038515;28;20704;-59
2022/08/31 10:29:34;;;;;;;5.05;3.90;;;25.00;67.60;;;;;;5027177;28;20513;-57
2022/08/31 10:32:07;;;;;;;4.97;4.15;;;25.00;67.40;;;;;;5025843;28;20116;-59
2022/08/31 10:37:48;;;;;;;5.18;4.05;;;25.10;67.50;;;;;;5025325;28;20053;-58
2022/08/31 10:40:39;;;;;;;5.88;4.35;;;25.20;67.50;;;;;;5024842;28;20025;-59
2022/08/31 10:43:21;;;;;;;5.35;4.15;;;25.20;67.50;;;;;;5019989;28;20111;-59
2022/08/31 10:45:51;;;;;;;5.72;4.20;;;25.20;67.50;;;;;;5030327;28;20025;-62
2022/08/31 10:48:22;;;;;;;;;;;25.30;67.60;;;;;;5031231;28;20105;-59
2022/08/31 10:51:08;;;;;;;5.00;4.00;;;25.30;67.50;;;;;;5032359;28;19913;-60
2022/08/31 10:54:02;;;;;;;6.53;4.10;;;25.30;67.50;;;;;;5030294;28;20041;-62
2022/08/31 10:56:40;;;;;;;5.40;3.60;;;25.40;67.50;;;;;;4970949;28;20034;-60
2022/08/31 10:59:21;;;;;;;4.53;3.60;;;25.40;67.20;;;;;;5001619;28;20022;-59
2022/08/31 11:02:20;;;;;;;5.35;4.07;;;25.50;67.50;;;;;;5013628;28;20035;-61
2022/08/31 11:05:09;;;;;;;5.47;3.60;;;25.50;67.20;;;;;;5015593;28;20016;-63
2022/08/31 11:07:47;;;;;;;5.00;3.65;;;25.60;67.10;;;;;;5019746;28;20063;-62
2022/08/31 11:10:22;;;;;;;5.20;3.90;;;25.60;67.10;;;;;;5015265;28;20082;-58
2022/08/31 11:12:56;;;;;;;5.07;4.10;;;25.60;67.00;;;;;;5015622;28;20534;-58
2022/08/31 11:15:46;;;;;;;5.95;3.83;;;25.60;66.80;;;;;;5015870;28;20457;-58
2022/08/31 11:18:38;;;;;;;4.28;3.50;;;25.70;66.70;;;;;;5020232;28;20029;-59
2022/08/31 11:21:52;;;;;;;6.78;3.78;;;25.70;66.50;;;;;;5022994;28;23149;-59
2022/08/31 11:24:33;;;;;;;4.10;3.30;;;25.70;66.40;;;;;;5024245;28;20041;-59
2022/08/31 11:27:22;;;;;;;4.80;3.22;;;25.70;66.40;;;;;;5015238;28;20091;-60
2022/08/31 11:29:55;;;;;;;4.68;3.80;;;25.60;66.10;;;;;;5011102;28;20596;-59
2022/08/31 11:32:33;;;;;;;5.18;3.70;;;25.60;66.10;;;;;;5017003;28;20074;-59
2022/08/31 11:35:07;;;;;;;4.63;3.33;;;25.60;66.00;;;;;;5023433;28;20032;-59
2022/08/31 11:37:54;;;;;;;4.03;3.25;;;25.60;65.70;;;;;;5026412;28;20058;-59
2022/08/31 11:40:40;;;;;;;3.97;3.08;;;25.60;65.70;;;;;;5012793;28;20431;-58
2022/08/31 11:43:25;;;;;;;3.40;2.88;;;25.60;65.60;;;;;;5008844;28;20033;-57
2022/08/31 11:45:51;;;;;;;3.92;3.33;;;25.60;65.70;;;;;;5020328;28;20184;-59
2022/08/31 11:48:52;;;;;;;3.85;3.30;;;25.60;65.70;;;;;;5006421;28;20033;-58
2022/08/31 11:51:32;;;;;;;3.65;3.25;;;25.60;65.20;;;;;;5021052;28;20556;-57
2022/08/31 11:54:00;;;;;;;3.88;3.20;;;25.60;65.10;;;;;;5028329;28;20060;-59
2022/08/31 11:56:42;;;;;;;4.20;2.97;;;25.60;64.90;;;;;;5020907;28;20082;-60
2022/08/31 11:59:27;;;;;;;3.08;2.75;;;25.60;64.70;;;;;;5025451;28;20067;-59
2022/08/31 12:01:55;;;;;;;3.72;3.20;;;25.60;64.70;;;;;;5022277;28;20037;-57
2022/08/31 12:04:44;;;;;;;3.35;2.97;;;25.60;64.60;;;;;;5018153;28;20033;-59
2022/08/31 12:07:27;;;;;;;3.28;2.88;;;25.60;64.50;;;;;;5023868;28;20120;-60
2022/08/31 12:10:11;;;;;;;3.28;2.45;;;25.60;64.50;;;;;;5024000;28;20551;-59
2022/08/31 12:12:54;;;;;;;3.30;2.80;;;25.50;64.20;;;;;;5020577;28;20026;-60
2022/08/31 12:15:31;;;;;;;3.92;3.08;;;25.50;64.20;;;;;;5022123;28;20029;-59
2022/08/31 12:18:31;;;;;;;3.22;2.92;;;25.50;64.20;;;;;;5022813;28;20032;-60
2022/08/31 12:24:02;;;;;;;3.47;2.78;;;25.40;64.10;;;;;;5024620;28;20043;-60
2022/08/31 12:26:53;;;;;;;2.95;2.70;;;25.40;64.00;;;;;;4997154;28;20441;-61
2022/08/31 12:29:35;;;;;;;2.72;2.50;;;25.40;64.00;;;;;;5019183;28;20033;-58
2022/08/31 12:32:15;;;;;;;3.10;2.80;;;25.40;64.00;;;;;;5013374;28;20033;-61
2022/08/31 12:34:56;;;;;;;3.42;2.78;;;25.40;64.00;;;;;;5012451;28;20040;-60
2022/08/31 12:37:25;;;;;;;2.50;2.30;;;25.40;64.00;;;;;;5018324;28;20098;-58
2022/08/31 12:40:25;;;;;;;3.85;2.72;;;25.40;63.80;;;;;;5020034;28;20983;-59
2022/08/31 12:43:16;;;;;;;2.77;2.57;;;25.40;63.70;;;;;;4969644;28;20037;-60
2022/08/31 12:45:41;;;;;;;;;;;25.40;63.70;;;;;;5016442;28;20036;-58
2022/08/31 12:48:21;;;;;;;2.40;2.20;;;25.40;63.50;;;;;;5017356;28;21095;-58
2022/08/31 12:51:01;;;;;;;2.80;2.35;;;25.40;63.60;;;;;;5019601;28;20041;-59
2022/08/31 12:53:44;;;;;;;2.28;2.00;;;25.40;63.50;;;;;;5020736;28;20040;-60
2022/08/31 12:56:12;;;;;;;2.78;2.28;;;25.40;63.50;;;;;;5021912;28;20171;-59
2022/08/31 12:59:02;;;;;;;3.13;2.38;;;25.40;63.40;;;;;;5023215;28;22126;-60
2022/08/31 13:01:28;;;;;;;2.22;2.03;;;25.40;63.30;;;;;;5020695;28;20029;-61
2022/08/31 13:03:59;;;;;;;3.30;2.72;;;25.40;63.20;;;;;;5019577;28;20585;-61
2022/08/31 13:06:27;;;;;;;;;;;25.40;63.10;;;;;;5019979;28;20033;-57
2022/08/31 13:08:54;;;;;;;2.47;2.20;;;25.40;62.80;;;;;;5019548;28;19943;-60
2022/08/31 13:11:29;;;;;;;2.67;2.35;;;25.40;63.00;;;;;;5026418;28;20088;-61
2022/08/31 13:14:18;;;;;;;3.20;2.40;;;25.40;62.80;;;;;;5025533;28;20060;-57
2022/08/31 13:16:50;;;;;;;2.72;2.30;;;25.40;62.60;;;;;;5024179;28;20033;-59
2022/08/31 13:19:26;;;;;;;2.45;2.25;;;25.50;62.60;;;;;;5029449;28;20108;-59
2022/08/31 13:22:04;;;;;;;2.88;2.50;;;25.50;62.70;;;;;;5026316;28;20555;-60
2022/08/31 13:24:42;;;;;;;2.58;2.03;;;25.50;62.60;;;;;;5030203;28;20075;-59
2022/08/31 13:27:08;;;;;;;2.63;2.30;;;25.60;62.50;;;;;;5030681;28;20033;-60